sensor_id;sensor_type;location;lat;lon;timestamp;pressure;altitude;pressure_sealevel;temperature;humidity
16461;BME280;8341;42.048;24.650;2023-05-12T00:01:18;97665.47;;;10.90;96.52
16461;BME280;8341;42.048;24.650;2023-05-12T00:03:46;97664.38;;;10.96;97.45
16461;BME280;8341;42.048;24.650;2023-05-12T00:06:13;97659.78;;;11.02;98.35
16461;BME280;8341;42.048;24.650;2023-05-12T00:08:41;97663.84;;;11.07;97.46
16461;BME280;8341;42.048;24.650;2023-05-12T00:11:08;97670.81;;;11.08;96.88
16461;BME280;8341;42.048;24.650;2023-05-12T00:13:35;97658.69;;;11.09;96.59
16461;BME280;8341;42.048;24.650;2023-05-12T00:16:03;97658.06;;;11.14;95.81
16461;BME280;8341;42.048;24.650;2023-05-12T00:18:30;97648.97;;;11.08;95.76
16461;BME280;8341;42.048;24.650;2023-05-12T00:20:57;97655.34;;;10.81;95.80
16461;BME280;8341;42.048;24.650;2023-05-12T00:23:24;97655.81;;;10.80;95.47
16461;BME280;8341;42.048;24.650;2023-05-12T00:25:52;97651.81;;;10.90;95.58
16461;BME280;8341;42.048;24.650;2023-05-12T00:28:19;97654.19;;;10.97;96.33
16461;BME280;8341;42.048;24.650;2023-05-12T00:30:46;97662.97;;;11.01;95.35
16461;BME280;8341;42.048;24.650;2023-05-12T00:33:13;97661.47;;;11.00;97.23
16461;BME280;8341;42.048;24.650;2023-05-12T00:35:41;97652.63;;;11.05;96.08
16461;BME280;8341;42.048;24.650;2023-05-12T00:38:10;97663.75;;;11.01;95.71
16461;BME280;8341;42.048;24.650;2023-05-12T00:40:37;97664.47;;;11.02;94.87
16461;BME280;8341;42.048;24.650;2023-05-12T00:43:05;97667.50;;;10.80;95.42
16461;BME280;8341;42.048;24.650;2023-05-12T00:45:33;97663.00;;;10.68;96.53
16461;BME280;8341;42.048;24.650;2023-05-12T00:48:00;97662.69;;;10.66;96.89
16461;BME280;8341;42.048;24.650;2023-05-12T00:50:27;97672.06;;;10.74;96.98
16461;BME280;8341;42.048;24.650;2023-05-12T00:52:54;97663.28;;;10.37;99.31
16461;BME280;8341;42.048;24.650;2023-05-12T00:55:22;97667.28;;;10.18;100.00
16461;BME280;8341;42.048;24.650;2023-05-12T00:57:49;97671.97;;;9.99;100.00
16461;BME280;8341;42.048;24.650;2023-05-12T01:00:17;97676.03;;;10.22;100.00
16461;BME280;8341;42.048;24.650;2023-05-12T01:02:45;97663.22;;;10.14;100.00
16461;BME280;8341;42.048;24.650;2023-05-12T01:05:12;97667.16;;;10.03;100.00
16461;BME280;8341;42.048;24.650;2023-05-12T01:07:39;97674.25;;;10.19;100.00
16461;BME280;8341;42.048;24.650;2023-05-12T01:10:16;97676.50;;;10.21;100.00
16461;BME280;8341;42.048;24.650;2023-05-12T01:12:44;97673.59;;;10.33;100.00
16461;BME280;8341;42.048;24.650;2023-05-12T01:15:11;97669.97;;;10.27;100.00
16461;BME280;8341;42.048;24.650;2023-05-12T01:17:52;97671.16;;;10.35;100.00
16461;BME280;8341;42.048;24.650;2023-05-12T01:20:24;97677.84;;;10.34;100.00
16461;BME280;8341;42.048;24.650;2023-05-12T01:22:53;97669.38;;;10.23;100.00
16461;BME280;8341;42.048;24.650;2023-05-12T01:25:22;97665.91;;;10.04;100.00
16461;BME280;8341;42.048;24.650;2023-05-12T01:27:51;97662.88;;;10.12;100.00
16461;BME280;8341;42.048;24.650;2023-05-12T01:30:20;97663.38;;;10.01;100.00
16461;BME280;8341;42.048;24.650;2023-05-12T01:32:47;97666.09;;;9.92;100.00
16461;BME280;8341;42.048;24.650;2023-05-12T01:35:14;97662.31;;;9.89;100.00
16461;BME280;8341;42.048;24.650;2023-05-12T01:37:41;97670.59;;;10.04;100.00
16461;BME280;8341;42.048;24.650;2023-05-12T01:40:09;97669.72;;;10.16;100.00
16461;BME280;8341;42.048;24.650;2023-05-12T01:42:38;97660.94;;;9.94;100.00
16461;BME280;8341;42.048;24.650;2023-05-12T01:45:08;97670.63;;;10.13;100.00
16461;BME280;8341;42.048;24.650;2023-05-12T01:47:35;97663.50;;;10.16;100.00
16461;BME280;8341;42.048;24.650;2023-05-12T01:50:02;97662.88;;;10.12;100.00
16461;BME280;8341;42.048;24.650;2023-05-12T01:52:29;97671.69;;;10.06;100.00
16461;BME280;8341;42.048;24.650;2023-05-12T01:54:57;97666.53;;;10.08;100.00
16461;BME280;8341;42.048;24.650;2023-05-12T01:57:24;97666.09;;;10.19;100.00
16461;BME280;8341;42.048;24.650;2023-05-12T01:59:51;97671.78;;;10.30;100.00
16461;BME280;8341;42.048;24.650;2023-05-12T02:02:19;97661.00;;;10.36;100.00
16461;BME280;8341;42.048;24.650;2023-05-12T02:04:46;97668.75;;;10.37;100.00
16461;BME280;8341;42.048;24.650;2023-05-12T02:07:13;97665.25;;;10.37;100.00
16461;BME280;8341;42.048;24.650;2023-05-12T02:09:40;97659.97;;;10.33;100.00
16461;BME280;8341;42.048;24.650;2023-05-12T02:12:08;97669.28;;;10.50;100.00
16461;BME280;8341;42.048;24.650;2023-05-12T02:14:35;97666.06;;;10.61;100.00
16461;BME280;8341;42.048;24.650;2023-05-12T02:17:02;97653.06;;;10.56;100.00
16461;BME280;8341;42.048;24.650;2023-05-12T02:19:30;97660.72;;;10.66;100.00
16461;BME280;8341;42.048;24.650;2023-05-12T02:21:57;97665.56;;;10.72;100.00
16461;BME280;8341;42.048;24.650;2023-05-12T02:24:24;97661.34;;;10.71;100.00
16461;BME280;8341;42.048;24.650;2023-05-12T02:26:51;97659.69;;;10.64;99.98
16461;BME280;8341;42.048;24.650;2023-05-12T02:29:18;97662.25;;;10.67;100.00
16461;BME280;8341;42.048;24.650;2023-05-12T02:31:45;97658.59;;;10.71;100.00
16461;BME280;8341;42.048;24.650;2023-05-12T02:34:14;97662.69;;;10.66;100.00
16461;BME280;8341;42.048;24.650;2023-05-12T02:36:42;97667.19;;;10.45;99.11
16461;BME280;8341;42.048;24.650;2023-05-12T02:39:09;97660.38;;;10.41;100.00
16461;BME280;8341;42.048;24.650;2023-05-12T02:41:36;97666.59;;;10.41;100.00
16461;BME280;8341;42.048;24.650;2023-05-12T02:44:03;97665.97;;;10.46;100.00
16461;BME280;8341;42.048;24.650;2023-05-12T02:46:30;97665.97;;;10.46;100.00
16461;BME280;8341;42.048;24.650;2023-05-12T02:48:57;97666.25;;;10.57;100.00
16461;BME280;8341;42.048;24.650;2023-05-12T02:51:24;97667.56;;;10.62;100.00
16461;BME280;8341;42.048;24.650;2023-05-12T02:53:53;97670.44;;;10.67;100.00
16461;BME280;8341;42.048;24.650;2023-05-12T02:56:20;97672.56;;;10.63;100.00
16461;BME280;8341;42.048;24.650;2023-05-12T02:58:47;97684.69;;;10.62;99.91
16461;BME280;8341;42.048;24.650;2023-05-12T03:01:14;97680.75;;;10.63;98.70
16461;BME280;8341;42.048;24.650;2023-05-12T03:03:41;97689.25;;;10.65;99.70
16461;BME280;8341;42.048;24.650;2023-05-12T03:06:08;97688.91;;;10.63;100.00
16461;BME280;8341;42.048;24.650;2023-05-12T03:08:35;97687.25;;;10.66;100.00
16461;BME280;8341;42.048;24.650;2023-05-12T03:11:04;97691.03;;;10.68;100.00
16461;BME280;8341;42.048;24.650;2023-05-12T03:13:31;97688.13;;;10.72;100.00
16461;BME280;8341;42.048;24.650;2023-05-12T03:15:58;97689.19;;;10.75;100.00
16461;BME280;8341;42.048;24.650;2023-05-12T03:18:25;97714.31;;;10.79;100.00
16461;BME280;8341;42.048;24.650;2023-05-12T03:20:53;97695.13;;;10.73;99.41
16461;BME280;8341;42.048;24.650;2023-05-12T03:23:20;97702.81;;;10.75;100.00
16461;BME280;8341;42.048;24.650;2023-05-12T03:25:47;97707.38;;;10.78;100.00
16461;BME280;8341;42.048;24.650;2023-05-12T03:28:15;97692.16;;;10.86;100.00
16461;BME280;8341;42.048;24.650;2023-05-12T03:30:42;97690.91;;;10.96;100.00
16461;BME280;8341;42.048;24.650;2023-05-12T03:33:09;97701.63;;;10.99;100.00
16461;BME280;8341;42.048;24.650;2023-05-12T03:35:36;97697.53;;;11.04;100.00
16461;BME280;8341;42.048;24.650;2023-05-12T03:38:03;97702.50;;;11.05;99.89
16461;BME280;8341;42.048;24.650;2023-05-12T03:40:30;97702.81;;;11.07;99.28
16461;BME280;8341;42.048;24.650;2023-05-12T03:42:57;97705.09;;;11.09;99.69
16461;BME280;8341;42.048;24.650;2023-05-12T03:45:26;97709.16;;;11.13;99.34
16461;BME280;8341;42.048;24.650;2023-05-12T03:47:53;97712.44;;;11.17;98.86
16461;BME280;8341;42.048;24.650;2023-05-12T03:50:20;97713.50;;;11.20;98.43
16461;BME280;8341;42.048;24.650;2023-05-12T03:52:46;97714.38;;;11.26;97.52
16461;BME280;8341;42.048;24.650;2023-05-12T03:55:13;97726.19;;;11.32;97.29
16461;BME280;8341;42.048;24.650;2023-05-12T03:57:40;97715.59;;;11.25;96.32
16461;BME280;8341;42.048;24.650;2023-05-12T04:00:09;97727.97;;;11.35;95.78
16461;BME280;8341;42.048;24.650;2023-05-12T04:02:38;97727.97;;;11.35;96.46
16461;BME280;8341;42.048;24.650;2023-05-12T04:05:06;97728.56;;;11.39;97.15
16461;BME280;8341;42.048;24.650;2023-05-12T04:07:34;97720.19;;;11.43;96.51
16461;BME280;8341;42.048;24.650;2023-05-12T04:10:01;97726.69;;;11.45;95.55
16461;BME280;8341;42.048;24.650;2023-05-12T04:12:28;97720.75;;;11.47;94.69
16461;BME280;8341;42.048;24.650;2023-05-12T04:14:55;97730.56;;;11.53;96.06
16461;BME280;8341;42.048;24.650;2023-05-12T04:17:22;97728.22;;;11.61;95.58
16461;BME280;8341;42.048;24.650;2023-05-12T04:19:51;97730.78;;;11.64;96.64
16461;BME280;8341;42.048;24.650;2023-05-12T04:22:18;97728.69;;;11.68;95.26
16461;BME280;8341;42.048;24.650;2023-05-12T04:24:45;97730.94;;;11.70;94.12
16461;BME280;8341;42.048;24.650;2023-05-12T04:27:12;97727.78;;;11.62;93.80
16461;BME280;8341;42.048;24.650;2023-05-12T04:29:39;97718.78;;;11.47;92.78
16461;BME280;8341;42.048;24.650;2023-05-12T04:32:06;97723.25;;;11.12;93.66
16461;BME280;8341;42.048;24.650;2023-05-12T04:34:33;97717.09;;;11.02;95.30
16461;BME280;8341;42.048;24.650;2023-05-12T04:37:02;97721.13;;;11.16;96.43
16461;BME280;8341;42.048;24.650;2023-05-12T04:39:29;97712.28;;;11.21;98.67
16461;BME280;8341;42.048;24.650;2023-05-12T04:41:56;97720.53;;;10.79;99.28
16461;BME280;8341;42.048;24.650;2023-05-12T04:44:23;97718.50;;;10.56;100.00
16461;BME280;8341;42.048;24.650;2023-05-12T04:46:50;97725.34;;;10.51;100.00
16461;BME280;8341;42.048;24.650;2023-05-12T04:49:20;97732.28;;;10.61;100.00
16461;BME280;8341;42.048;24.650;2023-05-12T04:51:49;97731.34;;;10.64;100.00
16461;BME280;8341;42.048;24.650;2023-05-12T04:54:17;97731.78;;;10.72;100.00
16461;BME280;8341;42.048;24.650;2023-05-12T04:56:44;97730.69;;;10.79;100.00
16461;BME280;8341;42.048;24.650;2023-05-12T04:59:11;97718.00;;;10.99;100.00
16461;BME280;8341;42.048;24.650;2023-05-12T05:01:40;97720.34;;;11.15;100.00
16461;BME280;8341;42.048;24.650;2023-05-12T05:04:07;97723.72;;;11.34;100.00
16461;BME280;8341;42.048;24.650;2023-05-12T05:06:34;97721.13;;;11.40;99.10
16461;BME280;8341;42.048;24.650;2023-05-12T05:09:01;97715.53;;;11.34;96.98
16461;BME280;8341;42.048;24.650;2023-05-12T05:11:30;97724.25;;;11.23;96.06
16461;BME280;8341;42.048;24.650;2023-05-12T05:13:56;97731.22;;;11.48;94.90
16461;BME280;8341;42.048;24.650;2023-05-12T05:16:23;97727.28;;;11.49;95.84
16461;BME280;8341;42.048;24.650;2023-05-12T05:18:51;97734.66;;;11.58;95.33
16461;BME280;8341;42.048;24.650;2023-05-12T05:21:18;97736.69;;;11.72;96.09
16461;BME280;8341;42.048;24.650;2023-05-12T05:23:45;97739.81;;;11.79;94.29
16461;BME280;8341;42.048;24.650;2023-05-12T05:26:12;97741.50;;;11.77;90.57
16461;BME280;8341;42.048;24.650;2023-05-12T05:28:40;97734.84;;;11.92;90.61
16461;BME280;8341;42.048;24.650;2023-05-12T05:31:07;97731.19;;;11.96;89.28
16461;BME280;8341;42.048;24.650;2023-05-12T05:33:34;97741.56;;;12.06;88.42
16461;BME280;8341;42.048;24.650;2023-05-12T05:36:01;97745.25;;;12.18;88.87
16461;BME280;8341;42.048;24.650;2023-05-12T05:38:28;97739.94;;;11.85;88.21
16461;BME280;8341;42.048;24.650;2023-05-12T05:40:55;97740.25;;;12.16;86.93
16461;BME280;8341;42.048;24.650;2023-05-12T05:43:22;97741.25;;;11.89;86.32
16461;BME280;8341;42.048;24.650;2023-05-12T05:45:51;97745.66;;;11.72;87.94
16461;BME280;8341;42.048;24.650;2023-05-12T05:48:18;97742.50;;;11.88;87.63
16461;BME280;8341;42.048;24.650;2023-05-12T05:50:45;97741.97;;;12.14;87.72
16461;BME280;8341;42.048;24.650;2023-05-12T05:53:12;97734.47;;;11.61;87.60
16461;BME280;8341;42.048;24.650;2023-05-12T05:55:39;97745.50;;;11.90;88.08
16461;BME280;8341;42.048;24.650;2023-05-12T05:58:06;97744.56;;;11.93;87.47
16461;BME280;8341;42.048;24.650;2023-05-12T06:00:33;97751.53;;;11.94;87.38
16461;BME280;8341;42.048;24.650;2023-05-12T06:03:01;97756.56;;;11.72;86.36
16461;BME280;8341;42.048;24.650;2023-05-12T06:05:28;97750.41;;;11.63;85.76
16461;BME280;8341;42.048;24.650;2023-05-12T06:07:55;97758.41;;;11.90;85.82
16461;BME280;8341;42.048;24.650;2023-05-12T06:10:23;97765.41;;;12.06;86.67
16461;BME280;8341;42.048;24.650;2023-05-12T06:12:50;97753.28;;;12.07;87.26
16461;BME280;8341;42.048;24.650;2023-05-12T06:15:17;97751.19;;;12.16;87.86
16461;BME280;8341;42.048;24.650;2023-05-12T06:17:44;97747.72;;;12.16;87.94
16461;BME280;8341;42.048;24.650;2023-05-12T06:20:13;97751.03;;;12.49;89.68
16461;BME280;8341;42.048;24.650;2023-05-12T06:22:40;97763.09;;;12.86;89.14
16461;BME280;8341;42.048;24.650;2023-05-12T06:25:09;97768.72;;;12.97;84.71
16461;BME280;8341;42.048;24.650;2023-05-12T06:27:36;97762.97;;;13.30;85.48
16461;BME280;8341;42.048;24.650;2023-05-12T06:30:03;97772.13;;;13.62;84.01
16461;BME280;8341;42.048;24.650;2023-05-12T06:32:30;97768.72;;;13.67;78.94
16461;BME280;8341;42.048;24.650;2023-05-12T06:34:57;97771.72;;;13.49;79.77
16461;BME280;8341;42.048;24.650;2023-05-12T06:37:26;97769.19;;;13.45;81.60
16461;BME280;8341;42.048;24.650;2023-05-12T06:39:53;97773.22;;;13.15;80.90
16461;BME280;8341;42.048;24.650;2023-05-12T06:42:20;97758.88;;;13.05;79.97
16461;BME280;8341;42.048;24.650;2023-05-12T06:44:47;97761.75;;;12.96;80.83
16461;BME280;8341;42.048;24.650;2023-05-12T06:47:14;97753.06;;;12.83;85.01
16461;BME280;8341;42.048;24.650;2023-05-12T06:49:41;97761.81;;;13.16;85.80
16461;BME280;8341;42.048;24.650;2023-05-12T06:52:08;97764.66;;;13.07;83.37
16461;BME280;8341;42.048;24.650;2023-05-12T06:54:36;97755.22;;;13.08;84.14
16461;BME280;8341;42.048;24.650;2023-05-12T06:57:03;97754.75;;;12.95;83.07
16461;BME280;8341;42.048;24.650;2023-05-12T06:59:30;97755.38;;;13.20;82.33
16461;BME280;8341;42.048;24.650;2023-05-12T07:01:57;97752.88;;;13.56;82.70
16461;BME280;8341;42.048;24.650;2023-05-12T07:04:24;97755.81;;;12.83;80.77
16461;BME280;8341;42.048;24.650;2023-05-12T07:06:52;97757.50;;;12.66;82.11
16461;BME280;8341;42.048;24.650;2023-05-12T07:09:19;97756.84;;;12.71;80.47
16461;BME280;8341;42.048;24.650;2023-05-12T07:11:48;97761.59;;;12.71;78.62
16461;BME280;8341;42.048;24.650;2023-05-12T07:14:15;97757.31;;;12.70;81.81
16461;BME280;8341;42.048;24.650;2023-05-12T07:16:42;97756.53;;;12.98;81.63
16461;BME280;8341;42.048;24.650;2023-05-12T07:19:10;97765.69;;;12.95;74.63
16461;BME280;8341;42.048;24.650;2023-05-12T07:21:37;97765.22;;;13.11;76.23
16461;BME280;8341;42.048;24.650;2023-05-12T07:24:04;97781.03;;;13.37;76.13
16461;BME280;8341;42.048;24.650;2023-05-12T07:26:31;97770.16;;;13.62;77.91
16461;BME280;8341;42.048;24.650;2023-05-12T07:29:00;97773.31;;;13.55;76.59
16461;BME280;8341;42.048;24.650;2023-05-12T07:31:28;97761.50;;;13.69;75.98
16461;BME280;8341;42.048;24.650;2023-05-12T07:33:55;97768.78;;;13.72;73.96
16461;BME280;8341;42.048;24.650;2023-05-12T07:36:22;97780.34;;;13.62;75.53
16461;BME280;8341;42.048;24.650;2023-05-12T07:38:49;97765.41;;;13.43;75.53
16461;BME280;8341;42.048;24.650;2023-05-12T07:41:16;97770.22;;;13.68;76.26
16461;BME280;8341;42.048;24.650;2023-05-12T07:43:43;97767.31;;;13.37;76.53
16461;BME280;8341;42.048;24.650;2023-05-12T07:46:12;97765.44;;;13.63;76.04
16461;BME280;8341;42.048;24.650;2023-05-12T07:48:39;97764.84;;;13.39;73.99
16461;BME280;8341;42.048;24.650;2023-05-12T07:51:06;97770.59;;;13.41;74.30
16461;BME280;8341;42.048;24.650;2023-05-12T07:53:34;97771.53;;;13.17;74.13
16461;BME280;8341;42.048;24.650;2023-05-12T07:56:01;97763.66;;;13.60;73.89
16461;BME280;8341;42.048;24.650;2023-05-12T07:58:28;97761.44;;;13.64;72.45
16461;BME280;8341;42.048;24.650;2023-05-12T08:00:55;97762.94;;;13.45;70.29
16461;BME280;8341;42.048;24.650;2023-05-12T08:03:25;97765.34;;;13.37;69.17
16461;BME280;8341;42.048;24.650;2023-05-12T08:05:53;97767.56;;;13.73;70.32
16461;BME280;8341;42.048;24.650;2023-05-12T08:08:20;97769.94;;;13.86;71.03
16461;BME280;8341;42.048;24.650;2023-05-12T08:10:47;97769.25;;;13.91;71.63
16461;BME280;8341;42.048;24.650;2023-05-12T08:13:14;97776.56;;;14.20;71.37
16461;BME280;8341;42.048;24.650;2023-05-12T08:15:41;97776.69;;;14.11;66.50
16461;BME280;8341;42.048;24.650;2023-05-12T08:18:08;97775.38;;;14.26;69.15
16461;BME280;8341;42.048;24.650;2023-05-12T08:20:36;97786.09;;;14.24;65.76
16461;BME280;8341;42.048;24.650;2023-05-12T08:23:03;97787.56;;;14.25;67.99
16461;BME280;8341;42.048;24.650;2023-05-12T08:25:30;97783.63;;;14.06;66.90
16461;BME280;8341;42.048;24.650;2023-05-12T08:27:59;97780.09;;;14.26;67.70
16461;BME280;8341;42.048;24.650;2023-05-12T08:30:26;97776.13;;;14.27;66.25
16461;BME280;8341;42.048;24.650;2023-05-12T08:32:54;97776.63;;;14.05;66.54
16461;BME280;8341;42.048;24.650;2023-05-12T08:35:21;97780.25;;;14.37;67.32
16461;BME280;8341;42.048;24.650;2023-05-12T08:37:50;97784.66;;;14.55;63.65
16461;BME280;8341;42.048;24.650;2023-05-12T08:40:20;97780.88;;;14.78;61.80
16461;BME280;8341;42.048;24.650;2023-05-12T08:42:51;97771.25;;;14.62;64.82
16461;BME280;8341;42.048;24.650;2023-05-12T08:45:23;97781.03;;;15.00;66.31
16461;BME280;8341;42.048;24.650;2023-05-12T08:47:50;97782.56;;;15.43;65.13
16461;BME280;8341;42.048;24.650;2023-05-12T08:50:21;97780.75;;;15.29;58.42
16461;BME280;8341;42.048;24.650;2023-05-12T08:52:50;97781.19;;;15.59;62.02
16461;BME280;8341;42.048;24.650;2023-05-12T08:55:18;97786.84;;;15.87;61.51
16461;BME280;8341;42.048;24.650;2023-05-12T08:57:46;97784.66;;;16.07;61.08
16461;BME280;8341;42.048;24.650;2023-05-12T09:00:15;97784.41;;;16.16;58.32
16461;BME280;8341;42.048;24.650;2023-05-12T09:02:43;97776.03;;;15.78;56.83
16461;BME280;8341;42.048;24.650;2023-05-12T09:05:10;97780.63;;;16.03;56.05
16461;BME280;8341;42.048;24.650;2023-05-12T09:07:41;97778.81;;;15.83;57.81
16461;BME280;8341;42.048;24.650;2023-05-12T09:10:14;97765.66;;;16.15;56.07
16461;BME280;8341;42.048;24.650;2023-05-12T09:12:44;97763.44;;;16.24;57.19
16461;BME280;8341;42.048;24.650;2023-05-12T09:15:17;97769.81;;;15.88;54.28
16461;BME280;8341;42.048;24.650;2023-05-12T09:17:45;97768.63;;;15.47;56.27
16461;BME280;8341;42.048;24.650;2023-05-12T09:20:12;97766.56;;;15.84;56.13
16461;BME280;8341;42.048;24.650;2023-05-12T09:22:40;97764.16;;;15.49;55.08
16461;BME280;8341;42.048;24.650;2023-05-12T09:25:16;97743.56;;;15.87;57.35
16461;BME280;8341;42.048;24.650;2023-05-12T09:27:45;97757.94;;;15.54;55.69
16461;BME280;8341;42.048;24.650;2023-05-12T09:30:13;97759.22;;;15.64;55.31
16461;BME280;8341;42.048;24.650;2023-05-12T09:32:40;97740.53;;;15.80;60.18
16461;BME280;8341;42.048;24.650;2023-05-12T09:35:08;97743.84;;;16.00;56.20
16461;BME280;8341;42.048;24.650;2023-05-12T09:37:37;97750.69;;;16.44;58.70
16461;BME280;8341;42.048;24.650;2023-05-12T09:40:05;97762.72;;;16.41;54.53
16461;BME280;8341;42.048;24.650;2023-05-12T09:42:34;97765.38;;;16.02;54.31
16461;BME280;8341;42.048;24.650;2023-05-12T09:45:02;97757.91;;;16.13;55.85
16461;BME280;8341;42.048;24.650;2023-05-12T09:47:33;97755.00;;;16.56;56.46
16461;BME280;8341;42.048;24.650;2023-05-12T09:50:01;97755.25;;;16.85;55.75
16461;BME280;8341;42.048;24.650;2023-05-12T09:52:28;97750.50;;;16.75;53.35
16461;BME280;8341;42.048;24.650;2023-05-12T09:55:04;97756.50;;;16.57;52.87
16461;BME280;8341;42.048;24.650;2023-05-12T09:57:37;97755.69;;;16.34;51.59
16461;BME280;8341;42.048;24.650;2023-05-12T10:00:07;97743.19;;;16.27;54.30
16461;BME280;8341;42.048;24.650;2023-05-12T10:02:36;97757.97;;;16.36;53.51
16461;BME280;8341;42.048;24.650;2023-05-12T10:05:05;97750.25;;;16.78;56.66
16461;BME280;8341;42.048;24.650;2023-05-12T10:07:34;97746.97;;;17.13;55.99
16461;BME280;8341;42.048;24.650;2023-05-12T10:10:04;97735.69;;;17.06;54.47
16461;BME280;8341;42.048;24.650;2023-05-12T10:12:32;97735.84;;;17.52;54.12
16461;BME280;8341;42.048;24.650;2023-05-12T10:15:02;97741.72;;;16.99;48.26
16461;BME280;8341;42.048;24.650;2023-05-12T10:17:30;97735.91;;;16.24;50.57
16461;BME280;8341;42.048;24.650;2023-05-12T10:19:58;97730.97;;;16.73;51.37
16461;BME280;8341;42.048;24.650;2023-05-12T10:22:25;97737.97;;;16.90;52.76
16461;BME280;8341;42.048;24.650;2023-05-12T10:24:54;97761.00;;;17.10;51.33
16461;BME280;8341;42.048;24.650;2023-05-12T10:27:23;97745.47;;;16.57;51.56
16461;BME280;8341;42.048;24.650;2023-05-12T10:29:51;97736.19;;;16.43;52.37
16461;BME280;8341;42.048;24.650;2023-05-12T10:32:20;97738.47;;;16.78;54.65
16461;BME280;8341;42.048;24.650;2023-05-12T10:34:47;97729.41;;;17.11;54.25
16461;BME280;8341;42.048;24.650;2023-05-12T10:37:14;97729.66;;;17.24;54.74
16461;BME280;8341;42.048;24.650;2023-05-12T10:39:46;97730.34;;;17.46;51.21
16461;BME280;8341;42.048;24.650;2023-05-12T10:42:16;97712.94;;;17.00;51.42
16461;BME280;8341;42.048;24.650;2023-05-12T10:44:50;97716.16;;;16.92;50.39
16461;BME280;8341;42.048;24.650;2023-05-12T10:47:17;97702.91;;;16.74;51.79
16461;BME280;8341;42.048;24.650;2023-05-12T10:49:46;97714.16;;;16.99;49.92
16461;BME280;8341;42.048;24.650;2023-05-12T10:52:18;97708.63;;;17.15;51.21
16461;BME280;8341;42.048;24.650;2023-05-12T10:54:46;97711.81;;;17.52;50.83
16461;BME280;8341;42.048;24.650;2023-05-12T10:57:14;97705.84;;;17.26;45.25
16461;BME280;8341;42.048;24.650;2023-05-12T10:59:47;97708.44;;;16.80;48.47
16461;BME280;8341;42.048;24.650;2023-05-12T11:02:15;97700.84;;;17.14;50.69
16461;BME280;8341;42.048;24.650;2023-05-12T11:04:48;97707.56;;;17.46;50.44
16461;BME280;8341;42.048;24.650;2023-05-12T11:07:21;97712.03;;;17.49;50.08
16461;BME280;8341;42.048;24.650;2023-05-12T11:09:49;97717.00;;;17.67;47.68
16461;BME280;8341;42.048;24.650;2023-05-12T11:12:16;97713.09;;;17.35;46.95
16461;BME280;8341;42.048;24.650;2023-05-12T11:14:44;97723.19;;;17.05;46.83
16461;BME280;8341;42.048;24.650;2023-05-12T11:17:12;97712.66;;;16.98;47.02
16461;BME280;8341;42.048;24.650;2023-05-12T11:19:44;97717.63;;;17.16;49.60
16461;BME280;8341;42.048;24.650;2023-05-12T11:22:16;97717.44;;;16.75;49.52
16461;BME280;8341;42.048;24.650;2023-05-12T11:24:43;97697.63;;;16.99;53.90
16461;BME280;8341;42.048;24.650;2023-05-12T11:27:12;97707.91;;;17.04;47.42
16461;BME280;8341;42.048;24.650;2023-05-12T11:29:40;97706.63;;;17.16;48.09
16461;BME280;8341;42.048;24.650;2023-05-12T11:32:08;97709.63;;;17.18;48.64
16461;BME280;8341;42.048;24.650;2023-05-12T11:34:35;97703.00;;;17.54;49.43
16461;BME280;8341;42.048;24.650;2023-05-12T11:37:03;97703.00;;;17.54;47.32
16461;BME280;8341;42.048;24.650;2023-05-12T11:39:32;97708.78;;;17.50;46.10
16461;BME280;8341;42.048;24.650;2023-05-12T11:42:01;97703.28;;;17.45;48.92
16461;BME280;8341;42.048;24.650;2023-05-12T11:44:30;97707.78;;;17.48;46.28
16461;BME280;8341;42.048;24.650;2023-05-12T11:46:59;97700.75;;;17.47;48.55
16461;BME280;8341;42.048;24.650;2023-05-12T11:49:26;97705.50;;;17.63;44.74
16461;BME280;8341;42.048;24.650;2023-05-12T11:51:54;97697.09;;;17.91;46.90
16461;BME280;8341;42.048;24.650;2023-05-12T11:54:22;97691.75;;;18.04;44.90
16461;BME280;8341;42.048;24.650;2023-05-12T11:56:52;97687.34;;;17.84;46.37
16461;BME280;8341;42.048;24.650;2023-05-12T11:59:27;97694.44;;;17.74;46.96
16461;BME280;8341;42.048;24.650;2023-05-12T12:01:54;97695.09;;;17.86;45.75
16461;BME280;8341;42.048;24.650;2023-05-12T12:04:32;97699.53;;;17.37;47.23
16461;BME280;8341;42.048;24.650;2023-05-12T12:06:59;97695.34;;;17.08;46.59
16461;BME280;8341;42.048;24.650;2023-05-12T12:09:31;97684.84;;;17.18;49.33
16461;BME280;8341;42.048;24.650;2023-05-12T12:11:59;97688.72;;;17.50;48.54
16461;BME280;8341;42.048;24.650;2023-05-12T12:14:27;97683.84;;;17.78;50.87
16461;BME280;8341;42.048;24.650;2023-05-12T12:16:55;97679.13;;;17.73;46.24
16461;BME280;8341;42.048;24.650;2023-05-12T12:19:22;97686.84;;;17.80;46.75
16461;BME280;8341;42.048;24.650;2023-05-12T12:21:51;97687.41;;;17.73;46.42
16461;BME280;8341;42.048;24.650;2023-05-12T12:24:17;97682.06;;;17.86;46.39
16461;BME280;8341;42.048;24.650;2023-05-12T12:26:44;97687.94;;;18.12;46.42
16461;BME280;8341;42.048;24.650;2023-05-12T12:29:13;97674.75;;;17.94;43.94
16461;BME280;8341;42.048;24.650;2023-05-12T12:31:40;97675.19;;;18.04;47.19
16461;BME280;8341;42.048;24.650;2023-05-12T12:34:07;97682.72;;;18.03;46.44
16461;BME280;8341;42.048;24.650;2023-05-12T12:36:35;97675.56;;;17.15;46.08
16461;BME280;8341;42.048;24.650;2023-05-12T12:39:02;97671.81;;;17.13;45.03
16461;BME280;8341;42.048;24.650;2023-05-12T12:41:29;97665.44;;;17.40;49.23
16461;BME280;8341;42.048;24.650;2023-05-12T12:43:56;97677.50;;;17.37;45.55
16461;BME280;8341;42.048;24.650;2023-05-12T12:46:25;97671.91;;;17.59;47.19
16461;BME280;8341;42.048;24.650;2023-05-12T12:48:52;97660.25;;;17.83;48.28
16461;BME280;8341;42.048;24.650;2023-05-12T12:51:19;97660.06;;;18.10;48.73
16461;BME280;8341;42.048;24.650;2023-05-12T12:53:46;97669.53;;;17.85;45.59
16461;BME280;8341;42.048;24.650;2023-05-12T12:56:13;97669.22;;;17.94;46.79
16461;BME280;8341;42.048;24.650;2023-05-12T12:58:40;97662.69;;;17.97;45.06
16461;BME280;8341;42.048;24.650;2023-05-12T13:01:07;97659.81;;;17.73;44.54